Kimberling City, Missouri
Current Conditions -  °F | °C
As of 1:35 PM on Sunday 23 Nov 2014 (Local Time) from KFWB Reporting Station
Broken Clouds Broken Clouds  
Wind Chill: 61°   Ceiling: 1100
Heat Index: 61°   Visibility: 10mi
Dew Point: 55°   Wind: 7mph
Humidity: 82%   Direction: 120°ESE
Pressure: 29.35"   Gusts: NA
Location:  36.63°N, 93.42°W
Report Text: KFWB 231935Z AUTO 12006KT 10SM BKN011 BKN025 16/13 A2935 RMK AO2
Loading
Personal Weather Stations






























Interactive Weather Map New forecast layout! Learn more

10-Day Weather Forecast

Advertisements
Track Severe Weather on mobile